sensor_id;sensor_type;location;lat;lon;timestamp;temperature;humidity
18105;DHT22;9179;50.968;3.134;2023-07-24T00:01:57;19.10;99.90
18105;DHT22;9179;50.968;3.134;2023-07-24T00:04:26;19.20;99.90
18105;DHT22;9179;50.968;3.134;2023-07-24T00:06:52;19.30;99.90
18105;DHT22;9179;50.968;3.134;2023-07-24T00:09:20;19.30;99.90
18105;DHT22;9179;50.968;3.134;2023-07-24T00:11:47;19.30;99.90
18105;DHT22;9179;50.968;3.134;2023-07-24T00:14:14;19.20;99.90
18105;DHT22;9179;50.968;3.134;2023-07-24T00:16:41;19.20;99.90
18105;DHT22;9179;50.968;3.134;2023-07-24T00:19:08;19.20;99.90
18105;DHT22;9179;50.968;3.134;2023-07-24T00:21:36;19.10;99.90
18105;DHT22;9179;50.968;3.134;2023-07-24T00:24:04;19.20;99.90
18105;DHT22;9179;50.968;3.134;2023-07-24T00:26:31;19.20;99.90
18105;DHT22;9179;50.968;3.134;2023-07-24T00:28:59;19.00;99.90
18105;DHT22;9179;50.968;3.134;2023-07-24T00:31:26;18.90;99.90
18105;DHT22;9179;50.968;3.134;2023-07-24T00:33:53;18.80;99.90
18105;DHT22;9179;50.968;3.134;2023-07-24T00:36:20;18.70;99.90
18105;DHT22;9179;50.968;3.134;2023-07-24T00:38:48;18.70;99.90
18105;DHT22;9179;50.968;3.134;2023-07-24T00:41:15;18.70;99.90
18105;DHT22;9179;50.968;3.134;2023-07-24T00:43:42;18.80;99.90
18105;DHT22;9179;50.968;3.134;2023-07-24T00:46:10;18.90;99.90
18105;DHT22;9179;50.968;3.134;2023-07-24T00:48:37;18.90;99.90
18105;DHT22;9179;50.968;3.134;2023-07-24T00:51:05;18.90;99.90
18105;DHT22;9179;50.968;3.134;2023-07-24T00:53:32;18.80;99.90
18105;DHT22;9179;50.968;3.134;2023-07-24T00:56:01;18.80;99.90
18105;DHT22;9179;50.968;3.134;2023-07-24T00:58:28;18.80;99.90
18105;DHT22;9179;50.968;3.134;2023-07-24T01:00:55;18.80;99.90
18105;DHT22;9179;50.968;3.134;2023-07-24T01:03:23;18.80;99.90
18105;DHT22;9179;50.968;3.134;2023-07-24T01:05:55;18.80;99.90
18105;DHT22;9179;50.968;3.134;2023-07-24T01:08:22;18.70;99.90
18105;DHT22;9179;50.968;3.134;2023-07-24T01:10:49;18.40;99.90
18105;DHT22;9179;50.968;3.134;2023-07-24T01:13:20;18.30;99.90
18105;DHT22;9179;50.968;3.134;2023-07-24T01:15:54;18.10;99.90
18105;DHT22;9179;50.968;3.134;2023-07-24T01:18:22;18.10;99.90
18105;DHT22;9179;50.968;3.134;2023-07-24T01:20:53;18.20;99.90
18105;DHT22;9179;50.968;3.134;2023-07-24T01:23:38;18.20;99.90
18105;DHT22;9179;50.968;3.134;2023-07-24T01:26:12;18.10;99.90
18105;DHT22;9179;50.968;3.134;2023-07-24T01:28:39;18.00;99.90
18105;DHT22;9179;50.968;3.134;2023-07-24T01:31:06;17.90;99.90
18105;DHT22;9179;50.968;3.134;2023-07-24T01:33:33;17.90;99.90
18105;DHT22;9179;50.968;3.134;2023-07-24T01:36:02;17.90;99.90
18105;DHT22;9179;50.968;3.134;2023-07-24T01:38:31;17.90;99.90
18105;DHT22;9179;50.968;3.134;2023-07-24T01:41:01;17.80;99.90
18105;DHT22;9179;50.968;3.134;2023-07-24T01:43:29;17.90;99.90
18105;DHT22;9179;50.968;3.134;2023-07-24T01:45:58;17.90;99.90
18105;DHT22;9179;50.968;3.134;2023-07-24T01:48:25;17.90;99.90
18105;DHT22;9179;50.968;3.134;2023-07-24T01:50:51;17.90;99.90
18105;DHT22;9179;50.968;3.134;2023-07-24T01:53:18;17.90;99.90
18105;DHT22;9179;50.968;3.134;2023-07-24T01:55:45;17.90;99.90
18105;DHT22;9179;50.968;3.134;2023-07-24T01:58:12;17.90;99.90
18105;DHT22;9179;50.968;3.134;2023-07-24T02:00:40;17.90;99.90
18105;DHT22;9179;50.968;3.134;2023-07-24T02:03:07;17.90;99.90
18105;DHT22;9179;50.968;3.134;2023-07-24T02:05:34;17.80;99.90
18105;DHT22;9179;50.968;3.134;2023-07-24T02:08:01;17.90;99.90
18105;DHT22;9179;50.968;3.134;2023-07-24T02:10:28;17.90;99.90
18105;DHT22;9179;50.968;3.134;2023-07-24T02:12:55;18.00;99.90
18105;DHT22;9179;50.968;3.134;2023-07-24T02:15:21;18.00;99.90
18105;DHT22;9179;50.968;3.134;2023-07-24T02:17:50;18.10;99.90
18105;DHT22;9179;50.968;3.134;2023-07-24T02:20:17;18.10;99.90
18105;DHT22;9179;50.968;3.134;2023-07-24T02:22:43;18.10;99.90
18105;DHT22;9179;50.968;3.134;2023-07-24T02:25:10;18.20;99.90
18105;DHT22;9179;50.968;3.134;2023-07-24T02:27:37;18.20;99.90
18105;DHT22;9179;50.968;3.134;2023-07-24T02:30:05;18.20;99.90
18105;DHT22;9179;50.968;3.134;2023-07-24T02:32:32;18.40;99.90
18105;DHT22;9179;50.968;3.134;2023-07-24T02:35:00;18.40;99.90
18105;DHT22;9179;50.968;3.134;2023-07-24T02:37:27;18.40;99.90
18105;DHT22;9179;50.968;3.134;2023-07-24T02:39:54;18.30;99.90
18105;DHT22;9179;50.968;3.134;2023-07-24T02:42:21;18.30;99.90
18105;DHT22;9179;50.968;3.134;2023-07-24T02:44:48;18.30;99.90
18105;DHT22;9179;50.968;3.134;2023-07-24T02:47:15;18.40;99.90
18105;DHT22;9179;50.968;3.134;2023-07-24T02:49:41;18.40;99.90
18105;DHT22;9179;50.968;3.134;2023-07-24T02:52:10;18.40;99.90
18105;DHT22;9179;50.968;3.134;2023-07-24T02:54:36;18.50;99.90
18105;DHT22;9179;50.968;3.134;2023-07-24T02:57:04;18.40;99.90
18105;DHT22;9179;50.968;3.134;2023-07-24T02:59:31;18.50;99.90
18105;DHT22;9179;50.968;3.134;2023-07-24T03:01:58;18.50;99.90
18105;DHT22;9179;50.968;3.134;2023-07-24T03:04:25;18.60;99.90
18105;DHT22;9179;50.968;3.134;2023-07-24T03:06:52;18.60;99.90
18105;DHT22;9179;50.968;3.134;2023-07-24T03:09:20;18.70;99.90
18105;DHT22;9179;50.968;3.134;2023-07-24T03:11:47;18.70;99.90
18105;DHT22;9179;50.968;3.134;2023-07-24T03:14:14;18.70;99.90
18105;DHT22;9179;50.968;3.134;2023-07-24T03:16:41;18.70;99.90
18105;DHT22;9179;50.968;3.134;2023-07-24T03:19:08;18.70;99.90
18105;DHT22;9179;50.968;3.134;2023-07-24T03:21:35;18.70;99.90
18105;DHT22;9179;50.968;3.134;2023-07-24T03:24:02;18.60;99.90
18105;DHT22;9179;50.968;3.134;2023-07-24T03:26:30;18.60;99.90
18105;DHT22;9179;50.968;3.134;2023-07-24T03:28:57;18.60;99.90
18105;DHT22;9179;50.968;3.134;2023-07-24T03:31:24;18.60;99.90
18105;DHT22;9179;50.968;3.134;2023-07-24T03:33:50;18.70;99.90
18105;DHT22;9179;50.968;3.134;2023-07-24T03:36:17;18.70;99.90
18105;DHT22;9179;50.968;3.134;2023-07-24T03:38:44;18.80;99.90
18105;DHT22;9179;50.968;3.134;2023-07-24T03:41:11;18.80;99.90
18105;DHT22;9179;50.968;3.134;2023-07-24T03:43:39;18.80;99.90
18105;DHT22;9179;50.968;3.134;2023-07-24T03:46:06;18.80;99.90
18105;DHT22;9179;50.968;3.134;2023-07-24T03:48:33;18.80;99.90
18105;DHT22;9179;50.968;3.134;2023-07-24T03:51:02;18.70;99.90
18105;DHT22;9179;50.968;3.134;2023-07-24T03:53:29;18.60;99.90
18105;DHT22;9179;50.968;3.134;2023-07-24T03:55:56;18.50;99.90
18105;DHT22;9179;50.968;3.134;2023-07-24T03:58:23;18.50;99.90
18105;DHT22;9179;50.968;3.134;2023-07-24T04:00:51;18.50;99.90
18105;DHT22;9179;50.968;3.134;2023-07-24T04:03:18;18.50;99.90
18105;DHT22;9179;50.968;3.134;2023-07-24T04:05:45;18.50;99.90
18105;DHT22;9179;50.968;3.134;2023-07-24T04:08:12;18.50;99.90
18105;DHT22;9179;50.968;3.134;2023-07-24T04:10:38;18.50;99.90
18105;DHT22;9179;50.968;3.134;2023-07-24T04:13:05;18.60;99.90
18105;DHT22;9179;50.968;3.134;2023-07-24T04:15:32;18.60;99.90
18105;DHT22;9179;50.968;3.134;2023-07-24T04:18:00;18.70;99.90
18105;DHT22;9179;50.968;3.134;2023-07-24T04:20:27;18.70;99.90
18105;DHT22;9179;50.968;3.134;2023-07-24T04:22:54;18.80;99.90
18105;DHT22;9179;50.968;3.134;2023-07-24T04:25:21;18.80;99.90
18105;DHT22;9179;50.968;3.134;2023-07-24T04:27:48;18.90;99.90
18105;DHT22;9179;50.968;3.134;2023-07-24T04:30:15;19.00;99.90
18105;DHT22;9179;50.968;3.134;2023-07-24T04:32:42;18.80;99.90
18105;DHT22;9179;50.968;3.134;2023-07-24T04:35:10;18.70;99.90
18105;DHT22;9179;50.968;3.134;2023-07-24T04:37:38;18.70;99.90
18105;DHT22;9179;50.968;3.134;2023-07-24T04:40:05;18.70;99.90
18105;DHT22;9179;50.968;3.134;2023-07-24T04:42:32;18.70;99.90
18105;DHT22;9179;50.968;3.134;2023-07-24T04:44:59;18.80;99.90
18105;DHT22;9179;50.968;3.134;2023-07-24T04:47:26;18.80;99.90
18105;DHT22;9179;50.968;3.134;2023-07-24T04:49:54;18.80;99.90
18105;DHT22;9179;50.968;3.134;2023-07-24T04:52:23;18.80;99.90
18105;DHT22;9179;50.968;3.134;2023-07-24T04:54:50;18.80;99.90
18105;DHT22;9179;50.968;3.134;2023-07-24T04:57:16;18.70;99.90
18105;DHT22;9179;50.968;3.134;2023-07-24T04:59:43;18.60;99.90
18105;DHT22;9179;50.968;3.134;2023-07-24T05:02:10;18.70;99.90
18105;DHT22;9179;50.968;3.134;2023-07-24T05:04:37;18.70;99.90
18105;DHT22;9179;50.968;3.134;2023-07-24T05:07:04;18.70;99.90
18105;DHT22;9179;50.968;3.134;2023-07-24T05:09:32;18.90;99.90
18105;DHT22;9179;50.968;3.134;2023-07-24T05:11:59;19.10;99.90
18105;DHT22;9179;50.968;3.134;2023-07-24T05:14:26;19.30;99.90
18105;DHT22;9179;50.968;3.134;2023-07-24T05:16:53;19.30;99.90
18105;DHT22;9179;50.968;3.134;2023-07-24T05:19:20;19.20;99.90
18105;DHT22;9179;50.968;3.134;2023-07-24T05:21:46;19.20;99.90
18105;DHT22;9179;50.968;3.134;2023-07-24T05:24:13;19.40;99.90
18105;DHT22;9179;50.968;3.134;2023-07-24T05:26:42;19.60;99.90
18105;DHT22;9179;50.968;3.134;2023-07-24T05:29:08;19.90;99.90
18105;DHT22;9179;50.968;3.134;2023-07-24T05:31:35;20.40;99.90
18105;DHT22;9179;50.968;3.134;2023-07-24T05:34:02;21.10;99.90
18105;DHT22;9179;50.968;3.134;2023-07-24T05:36:30;21.30;99.90
18105;DHT22;9179;50.968;3.134;2023-07-24T05:38:57;21.00;99.90
18105;DHT22;9179;50.968;3.134;2023-07-24T05:41:24;20.80;99.90
18105;DHT22;9179;50.968;3.134;2023-07-24T05:43:52;20.70;99.90
18105;DHT22;9179;50.968;3.134;2023-07-24T05:46:21;20.70;99.90
18105;DHT22;9179;50.968;3.134;2023-07-24T05:48:48;20.60;99.90
18105;DHT22;9179;50.968;3.134;2023-07-24T05:51:15;20.70;99.90
18105;DHT22;9179;50.968;3.134;2023-07-24T05:53:41;20.80;99.90
18105;DHT22;9179;50.968;3.134;2023-07-24T05:56:08;21.00;99.90
18105;DHT22;9179;50.968;3.134;2023-07-24T05:58:35;21.20;99.90
18105;DHT22;9179;50.968;3.134;2023-07-24T06:01:03;21.10;99.90
18105;DHT22;9179;50.968;3.134;2023-07-24T06:03:33;21.20;99.90
18105;DHT22;9179;50.968;3.134;2023-07-24T06:06:00;21.40;99.90
18105;DHT22;9179;50.968;3.134;2023-07-24T06:08:27;21.30;99.90
18105;DHT22;9179;50.968;3.134;2023-07-24T06:10:54;21.00;99.90
18105;DHT22;9179;50.968;3.134;2023-07-24T06:13:21;20.90;99.90
18105;DHT22;9179;50.968;3.134;2023-07-24T06:15:49;20.80;99.90
18105;DHT22;9179;50.968;3.134;2023-07-24T06:18:18;20.70;99.90
18105;DHT22;9179;50.968;3.134;2023-07-24T06:20:45;20.60;99.90
18105;DHT22;9179;50.968;3.134;2023-07-24T06:23:12;20.50;99.90
18105;DHT22;9179;50.968;3.134;2023-07-24T06:25:39;20.50;99.90
18105;DHT22;9179;50.968;3.134;2023-07-24T06:28:05;20.60;99.90
18105;DHT22;9179;50.968;3.134;2023-07-24T06:30:32;20.70;99.90
18105;DHT22;9179;50.968;3.134;2023-07-24T06:32:59;20.80;99.90
18105;DHT22;9179;50.968;3.134;2023-07-24T06:35:27;20.80;99.90
18105;DHT22;9179;50.968;3.134;2023-07-24T06:37:54;21.00;99.90
18105;DHT22;9179;50.968;3.134;2023-07-24T06:40:21;20.90;99.90
18105;DHT22;9179;50.968;3.134;2023-07-24T06:42:48;21.20;99.90
18105;DHT22;9179;50.968;3.134;2023-07-24T06:45:15;21.70;99.90
18105;DHT22;9179;50.968;3.134;2023-07-24T06:47:42;22.20;99.90
18105;DHT22;9179;50.968;3.134;2023-07-24T06:50:09;22.70;99.90
18105;DHT22;9179;50.968;3.134;2023-07-24T06:52:37;23.20;99.90
18105;DHT22;9179;50.968;3.134;2023-07-24T06:55:05;22.60;99.90
18105;DHT22;9179;50.968;3.134;2023-07-24T06:57:32;21.60;99.90
18105;DHT22;9179;50.968;3.134;2023-07-24T06:59:59;21.50;99.90
18105;DHT22;9179;50.968;3.134;2023-07-24T07:02:26;21.50;99.90
18105;DHT22;9179;50.968;3.134;2023-07-24T07:04:54;21.50;99.90
18105;DHT22;9179;50.968;3.134;2023-07-24T07:07:21;21.70;99.90
18105;DHT22;9179;50.968;3.134;2023-07-24T07:09:49;21.90;99.90
18105;DHT22;9179;50.968;3.134;2023-07-24T07:12:16;21.90;99.90
18105;DHT22;9179;50.968;3.134;2023-07-24T07:14:42;22.00;99.90
18105;DHT22;9179;50.968;3.134;2023-07-24T07:17:09;22.00;99.90
18105;DHT22;9179;50.968;3.134;2023-07-24T07:19:36;21.80;99.90
18105;DHT22;9179;50.968;3.134;2023-07-24T07:22:04;21.80;99.90
18105;DHT22;9179;50.968;3.134;2023-07-24T07:24:31;22.00;99.90
18105;DHT22;9179;50.968;3.134;2023-07-24T07:26:59;22.70;99.90
18105;DHT22;9179;50.968;3.134;2023-07-24T07:29:26;23.20;99.90
18105;DHT22;9179;50.968;3.134;2023-07-24T07:31:53;23.90;99.90
18105;DHT22;9179;50.968;3.134;2023-07-24T07:34:19;24.20;99.90
18105;DHT22;9179;50.968;3.134;2023-07-24T07:36:46;24.30;99.90
18105;DHT22;9179;50.968;3.134;2023-07-24T07:39:13;24.40;99.90
18105;DHT22;9179;50.968;3.134;2023-07-24T07:41:40;24.70;99.90
18105;DHT22;9179;50.968;3.134;2023-07-24T07:44:08;24.80;99.90
18105;DHT22;9179;50.968;3.134;2023-07-24T07:46:35;24.80;99.90
18105;DHT22;9179;50.968;3.134;2023-07-24T07:49:02;24.70;99.90
18105;DHT22;9179;50.968;3.134;2023-07-24T07:51:29;24.00;99.90
18105;DHT22;9179;50.968;3.134;2023-07-24T07:53:56;23.30;99.90
18105;DHT22;9179;50.968;3.134;2023-07-24T07:56:23;23.20;99.90
18105;DHT22;9179;50.968;3.134;2023-07-24T07:58:50;23.30;99.90
18105;DHT22;9179;50.968;3.134;2023-07-24T08:01:18;23.40;99.90
18105;DHT22;9179;50.968;3.134;2023-07-24T08:03:45;23.20;99.90
18105;DHT22;9179;50.968;3.134;2023-07-24T08:06:12;23.30;99.90
18105;DHT22;9179;50.968;3.134;2023-07-24T08:08:39;23.70;99.90
18105;DHT22;9179;50.968;3.134;2023-07-24T08:11:06;24.00;99.90
18105;DHT22;9179;50.968;3.134;2023-07-24T08:13:33;23.20;99.90
18105;DHT22;9179;50.968;3.134;2023-07-24T08:16:00;22.60;99.90
18105;DHT22;9179;50.968;3.134;2023-07-24T08:18:30;22.00;99.90
18105;DHT22;9179;50.968;3.134;2023-07-24T08:20:57;21.80;99.90
18105;DHT22;9179;50.968;3.134;2023-07-24T08:23:23;22.00;99.90
18105;DHT22;9179;50.968;3.134;2023-07-24T08:25:51;22.30;99.90
18105;DHT22;9179;50.968;3.134;2023-07-24T08:28:19;23.10;99.90
18105;DHT22;9179;50.968;3.134;2023-07-24T08:30:46;23.40;99.90
18105;DHT22;9179;50.968;3.134;2023-07-24T08:33:13;23.90;99.90
18105;DHT22;9179;50.968;3.134;2023-07-24T08:35:41;24.20;99.90
18105;DHT22;9179;50.968;3.134;2023-07-24T08:38:08;24.60;99.90
18105;DHT22;9179;50.968;3.134;2023-07-24T08:40:35;25.30;99.90
18105;DHT22;9179;50.968;3.134;2023-07-24T08:43:03;25.80;99.90
18105;DHT22;9179;50.968;3.134;2023-07-24T08:45:30;25.80;99.90
18105;DHT22;9179;50.968;3.134;2023-07-24T08:47:59;26.00;99.90
18105;DHT22;9179;50.968;3.134;2023-07-24T08:50:26;26.50;99.90
18105;DHT22;9179;50.968;3.134;2023-07-24T08:52:56;26.60;99.90
18105;DHT22;9179;50.968;3.134;2023-07-24T08:55:24;26.40;99.90
18105;DHT22;9179;50.968;3.134;2023-07-24T08:57:52;26.10;99.90
18105;DHT22;9179;50.968;3.134;2023-07-24T09:00:19;26.00;99.90
18105;DHT22;9179;50.968;3.134;2023-07-24T09:02:46;26.80;99.90
18105;DHT22;9179;50.968;3.134;2023-07-24T09:05:13;28.80;99.90
18105;DHT22;9179;50.968;3.134;2023-07-24T09:07:41;28.80;99.90
18105;DHT22;9179;50.968;3.134;2023-07-24T09:10:10;28.90;99.90
18105;DHT22;9179;50.968;3.134;2023-07-24T09:12:37;29.40;99.90
18105;DHT22;9179;50.968;3.134;2023-07-24T09:15:05;29.90;99.90
18105;DHT22;9179;50.968;3.134;2023-07-24T09:17:32;29.50;99.90
18105;DHT22;9179;50.968;3.134;2023-07-24T09:19:59;29.50;99.90
18105;DHT22;9179;50.968;3.134;2023-07-24T09:22:27;28.70;99.90
18105;DHT22;9179;50.968;3.134;2023-07-24T09:24:56;29.00;99.90
18105;DHT22;9179;50.968;3.134;2023-07-24T09:27:27;30.50;99.90
18105;DHT22;9179;50.968;3.134;2023-07-24T09:29:55;30.70;99.90
18105;DHT22;9179;50.968;3.134;2023-07-24T09:32:23;30.80;99.90
18105;DHT22;9179;50.968;3.134;2023-07-24T09:34:51;29.90;99.90
18105;DHT22;9179;50.968;3.134;2023-07-24T09:37:23;29.20;99.90
18105;DHT22;9179;50.968;3.134;2023-07-24T09:39:51;28.80;99.90
18105;DHT22;9179;50.968;3.134;2023-07-24T09:42:18;28.00;99.90
18105;DHT22;9179;50.968;3.134;2023-07-24T09:44:46;27.60;99.90
18105;DHT22;9179;50.968;3.134;2023-07-24T09:47:13;27.30;99.90
18105;DHT22;9179;50.968;3.134;2023-07-24T09:49:40;26.70;99.90
18105;DHT22;9179;50.968;3.134;2023-07-24T09:52:09;26.30;99.90
18105;DHT22;9179;50.968;3.134;2023-07-24T09:54:43;26.20;99.90
18105;DHT22;9179;50.968;3.134;2023-07-24T09:57:13;26.50;99.90
18105;DHT22;9179;50.968;3.134;2023-07-24T09:59:41;26.90;99.90
18105;DHT22;9179;50.968;3.134;2023-07-24T10:02:11;26.90;99.90
18105;DHT22;9179;50.968;3.134;2023-07-24T10:04:40;27.10;99.90
18105;DHT22;9179;50.968;3.134;2023-07-24T10:07:07;27.10;99.90
18105;DHT22;9179;50.968;3.134;2023-07-24T10:09:34;27.70;99.90
18105;DHT22;9179;50.968;3.134;2023-07-24T10:12:02;27.90;99.90
18105;DHT22;9179;50.968;3.134;2023-07-24T10:14:30;28.00;99.90
18105;DHT22;9179;50.968;3.134;2023-07-24T10:16:57;27.90;99.90
18105;DHT22;9179;50.968;3.134;2023-07-24T10:19:35;27.60;99.90
18105;DHT22;9179;50.968;3.134;2023-07-24T10:22:03;27.40;99.90
18105;DHT22;9179;50.968;3.134;2023-07-24T10:24:30;27.00;99.90
18105;DHT22;9179;50.968;3.134;2023-07-24T10:26:57;26.50;99.90
18105;DHT22;9179;50.968;3.134;2023-07-24T10:29:24;26.90;99.90
18105;DHT22;9179;50.968;3.134;2023-07-24T10:31:54;27.10;99.90
18105;DHT22;9179;50.968;3.134;2023-07-24T10:34:21;27.00;99.90
18105;DHT22;9179;50.968;3.134;2023-07-24T10:36:49;26.50;99.90
18105;DHT22;9179;50.968;3.134;2023-07-24T10:39:17;26.00;99.90
18105;DHT22;9179;50.968;3.134;2023-07-24T10:41:46;26.00;99.90
18105;DHT22;9179;50.968;3.134;2023-07-24T10:44:13;26.40;99.90
18105;DHT22;9179;50.968;3.134;2023-07-24T10:46:41;26.60;99.90
18105;DHT22;9179;50.968;3.134;2023-07-24T10:49:09;26.70;99.90
18105;DHT22;9179;50.968;3.134;2023-07-24T10:51:36;26.70;99.90
18105;DHT22;9179;50.968;3.134;2023-07-24T10:54:05;26.00;99.90
18105;DHT22;9179;50.968;3.134;2023-07-24T10:56:32;25.60;99.90
18105;DHT22;9179;50.968;3.134;2023-07-24T10:59:03;25.40;99.90
18105;DHT22;9179;50.968;3.134;2023-07-24T11:01:31;25.30;99.90
18105;DHT22;9179;50.968;3.134;2023-07-24T11:03:59;25.20;99.90
18105;DHT22;9179;50.968;3.134;2023-07-24T11:06:26;25.00;99.90
18105;DHT22;9179;50.968;3.134;2023-07-24T11:08:54;25.20;99.90
18105;DHT22;9179;50.968;3.134;2023-07-24T11:11:28;25.10;99.90
18105;DHT22;9179;50.968;3.134;2023-07-24T11:13:54;24.60;99.90
18105;DHT22;9179;50.968;3.134;2023-07-24T11:16:22;24.60;99.90
18105;DHT22;9179;50.968;3.134;2023-07-24T11:18:50;24.70;99.90
18105;DHT22;9179;50.968;3.134;2023-07-24T11:21:18;25.00;99.90
18105;DHT22;9179;50.968;3.134;2023-07-24T11:23:47;25.40;99.90
18105;DHT22;9179;50.968;3.134;2023-07-24T11:26:14;25.60;99.90
18105;DHT22;9179;50.968;3.134;2023-07-24T11:28:43;25.80;99.90
18105;DHT22;9179;50.968;3.134;2023-07-24T11:31:10;25.80;99.90
18105;DHT22;9179;50.968;3.134;2023-07-24T11:33:38;25.90;99.90
18105;DHT22;9179;50.968;3.134;2023-07-24T11:36:07;26.00;99.90
18105;DHT22;9179;50.968;3.134;2023-07-24T11:38:34;26.60;99.90
18105;DHT22;9179;50.968;3.134;2023-07-24T11:41:02;27.20;99.90
18105;DHT22;9179;50.968;3.134;2023-07-24T11:43:29;27.40;99.90
18105;DHT22;9179;50.968;3.134;2023-07-24T11:45:57;27.60;99.90
18105;DHT22;9179;50.968;3.134;2023-07-24T11:48:25;27.90;99.90
18105;DHT22;9179;50.968;3.134;2023-07-24T11:50:53;28.90;99.90
18105;DHT22;9179;50.968;3.134;2023-07-24T11:53:22;30.00;99.90
18105;DHT22;9179;50.968;3.134;2023-07-24T11:55:50;31.00;99.90
18105;DHT22;9179;50.968;3.134;2023-07-24T11:58:18;32.10;99.90
18105;DHT22;9179;50.968;3.134;2023-07-24T12:00:45;32.00;99.90
18105;DHT22;9179;50.968;3.134;2023-07-24T12:03:14;32.30;99.90
18105;DHT22;9179;50.968;3.134;2023-07-24T12:05:42;32.90;99.90
18105;DHT22;9179;50.968;3.134;2023-07-24T12:08:10;32.80;99.90
18105;DHT22;9179;50.968;3.134;2023-07-24T12:10:38;32.70;99.90
18105;DHT22;9179;50.968;3.134;2023-07-24T12:13:05;34.00;99.90
18105;DHT22;9179;50.968;3.134;2023-07-24T12:15:32;34.00;99.90
18105;DHT22;9179;50.968;3.134;2023-07-24T12:18:00;32.90;97.60
18105;DHT22;9179;50.968;3.134;2023-07-24T12:20:29;30.60;99.80
18105;DHT22;9179;50.968;3.134;2023-07-24T12:22:56;28.50;99.90
18105;DHT22;9179;50.968;3.134;2023-07-24T12:25:23;27.10;99.90
18105;DHT22;9179;50.968;3.134;2023-07-24T12:27:50;26.30;99.90
18105;DHT22;9179;50.968;3.134;2023-07-24T12:30:17;26.40;99.90
18105;DHT22;9179;50.968;3.134;2023-07-24T12:32:45;27.80;99.90
18105;DHT22;9179;50.968;3.134;2023-07-24T12:35:12;28.10;99.90
18105;DHT22;9179;50.968;3.134;2023-07-24T12:37:40;27.70;99.90
18105;DHT22;9179;50.968;3.134;2023-07-24T12:40:08;27.30;99.90
18105;DHT22;9179;50.968;3.134;2023-07-24T12:42:35;27.00;99.90
18105;DHT22;9179;50.968;3.134;2023-07-24T12:45:03;27.10;99.90
18105;DHT22;9179;50.968;3.134;2023-07-24T12:47:30;27.30;99.90
18105;DHT22;9179;50.968;3.134;2023-07-24T12:49:57;28.50;99.90
18105;DHT22;9179;50.968;3.134;2023-07-24T12:52:24;31.20;99.90
18105;DHT22;9179;50.968;3.134;2023-07-24T12:54:53;31.10;99.40
18105;DHT22;9179;50.968;3.134;2023-07-24T12:57:20;29.50;98.80
18105;DHT22;9179;50.968;3.134;2023-07-24T12:59:47;27.90;99.80
18105;DHT22;9179;50.968;3.134;2023-07-24T13:02:14;23.70;99.90
18105;DHT22;9179;50.968;3.134;2023-07-24T13:04:42;20.80;99.90
18105;DHT22;9179;50.968;3.134;2023-07-24T13:07:09;20.10;99.90
18105;DHT22;9179;50.968;3.134;2023-07-24T13:09:36;19.90;99.90
18105;DHT22;9179;50.968;3.134;2023-07-24T13:12:05;20.60;99.90
18105;DHT22;9179;50.968;3.134;2023-07-24T13:14:32;21.30;99.90
18105;DHT22;9179;50.968;3.134;2023-07-24T13:16:59;22.30;99.90
18105;DHT22;9179;50.968;3.134;2023-07-24T13:19:26;23.80;99.90
18105;DHT22;9179;50.968;3.134;2023-07-24T13:21:53;24.00;99.90
18105;DHT22;9179;50.968;3.134;2023-07-24T13:24:20;24.90;99.90
18105;DHT22;9179;50.968;3.134;2023-07-24T13:26:46;27.60;99.90
18105;DHT22;9179;50.968;3.134;2023-07-24T13:29:15;29.20;99.90
18105;DHT22;9179;50.968;3.134;2023-07-24T13:31:42;30.90;99.90
18105;DHT22;9179;50.968;3.134;2023-07-24T13:34:09;32.40;99.90
18105;DHT22;9179;50.968;3.134;2023-07-24T13:36:35;32.90;99.90
18105;DHT22;9179;50.968;3.134;2023-07-24T13:39:02;34.00;99.90
18105;DHT22;9179;50.968;3.134;2023-07-24T13:41:29;34.70;99.90
18105;DHT22;9179;50.968;3.134;2023-07-24T13:43:57;33.40;99.90
18105;DHT22;9179;50.968;3.134;2023-07-24T13:46:25;30.50;99.90
18105;DHT22;9179;50.968;3.134;2023-07-24T13:48:52;27.70;99.90
18105;DHT22;9179;50.968;3.134;2023-07-24T13:51:19;25.50;99.90
18105;DHT22;9179;50.968;3.134;2023-07-24T13:53:46;23.80;99.90
18105;DHT22;9179;50.968;3.134;2023-07-24T13:56:14;22.70;99.90
18105;DHT22;9179;50.968;3.134;2023-07-24T13:58:42;22.70;99.90
18105;DHT22;9179;50.968;3.134;2023-07-24T14:01:09;23.40;99.90
18105;DHT22;9179;50.968;3.134;2023-07-24T14:03:37;24.00;99.90
18105;DHT22;9179;50.968;3.134;2023-07-24T14:06:04;23.90;99.90
18105;DHT22;9179;50.968;3.134;2023-07-24T14:08:31;23.90;99.90
18105;DHT22;9179;50.968;3.134;2023-07-24T14:10:58;23.80;99.90
18105;DHT22;9179;50.968;3.134;2023-07-24T14:13:25;23.40;99.90
18105;DHT22;9179;50.968;3.134;2023-07-24T14:15:52;22.60;99.90
18105;DHT22;9179;50.968;3.134;2023-07-24T14:18:18;21.50;99.90
18105;DHT22;9179;50.968;3.134;2023-07-24T14:20:47;21.10;99.90
18105;DHT22;9179;50.968;3.134;2023-07-24T14:23:14;21.50;99.90
18105;DHT22;9179;50.968;3.134;2023-07-24T14:25:40;22.40;99.90
18105;DHT22;9179;50.968;3.134;2023-07-24T14:28:07;25.30;99.90
18105;DHT22;9179;50.968;3.134;2023-07-24T14:30:34;26.10;99.90
18105;DHT22;9179;50.968;3.134;2023-07-24T14:33:01;26.70;99.90
18105;DHT22;9179;50.968;3.134;2023-07-24T14:35:28;26.50;99.90
18105;DHT22;9179;50.968;3.134;2023-07-24T14:37:56;29.50;99.90
18105;DHT22;9179;50.968;3.134;2023-07-24T14:40:23;31.00;99.90
18105;DHT22;9179;50.968;3.134;2023-07-24T14:42:50;33.00;99.90
18105;DHT22;9179;50.968;3.134;2023-07-24T14:45:17;32.80;99.90
18105;DHT22;9179;50.968;3.134;2023-07-24T14:47:44;30.40;99.90
18105;DHT22;9179;50.968;3.134;2023-07-24T14:50:11;29.90;99.90
18105;DHT22;9179;50.968;3.134;2023-07-24T14:52:37;29.50;99.90
18105;DHT22;9179;50.968;3.134;2023-07-24T14:55:06;30.10;99.90
18105;DHT22;9179;50.968;3.134;2023-07-24T14:57:33;32.40;99.90
18105;DHT22;9179;50.968;3.134;2023-07-24T15:00:00;33.60;99.90
18105;DHT22;9179;50.968;3.134;2023-07-24T15:02:27;34.70;99.90
18105;DHT22;9179;50.968;3.134;2023-07-24T15:04:54;34.80;99.40
18105;DHT22;9179;50.968;3.134;2023-07-24T15:07:21;34.10;99.50
18105;DHT22;9179;50.968;3.134;2023-07-24T15:09:48;34.70;97.70
18105;DHT22;9179;50.968;3.134;2023-07-24T15:12:16;34.20;95.80
18105;DHT22;9179;50.968;3.134;2023-07-24T15:14:43;35.40;94.40
18105;DHT22;9179;50.968;3.134;2023-07-24T15:17:10;36.60;92.70
18105;DHT22;9179;50.968;3.134;2023-07-24T15:19:40;36.50;90.10
18105;DHT22;9179;50.968;3.134;2023-07-24T15:22:07;32.30;93.50
18105;DHT22;9179;50.968;3.134;2023-07-24T15:24:33;32.70;96.40
18105;DHT22;9179;50.968;3.134;2023-07-24T15:27:00;34.70;92.10
18105;DHT22;9179;50.968;3.134;2023-07-24T15:29:34;35.10;90.80
18105;DHT22;9179;50.968;3.134;2023-07-24T15:32:01;36.10;86.40
18105;DHT22;9179;50.968;3.134;2023-07-24T15:34:28;36.80;83.10
18105;DHT22;9179;50.968;3.134;2023-07-24T15:36:55;37.90;78.70
18105;DHT22;9179;50.968;3.134;2023-07-24T15:39:22;37.10;75.70
18105;DHT22;9179;50.968;3.134;2023-07-24T15:41:49;32.50;82.20
18105;DHT22;9179;50.968;3.134;2023-07-24T15:44:16;31.20;85.00
18105;DHT22;9179;50.968;3.134;2023-07-24T15:46:44;29.90;90.20